createdAt,value
2017-10-23T00:01:27.334Z,1.80
2017-10-23T00:03:54.802Z,2.33
2017-10-23T00:06:22.289Z,1.97
2017-10-23T00:08:49.789Z,2.00
2017-10-23T00:11:17.280Z,2.00
2017-10-23T00:13:44.751Z,2.00
2017-10-23T00:16:12.251Z,2.30
2017-10-23T00:18:39.722Z,2.80
2017-10-23T00:21:07.179Z,2.80
2017-10-23T00:23:34.675Z,2.20
2017-10-23T00:26:02.137Z,2.70
2017-10-23T00:28:29.610Z,2.83
2017-10-23T00:30:57.083Z,2.60
2017-10-23T00:33:24.552Z,2.57
2017-10-23T00:35:52.006Z,2.70
2017-10-23T00:38:19.494Z,3.00
2017-10-23T00:40:46.967Z,1.97
2017-10-23T00:43:14.449Z,2.77
2017-10-23T00:45:41.919Z,2.87
2017-10-23T00:48:09.395Z,2.50
2017-10-23T00:50:36.854Z,2.67
2017-10-23T00:53:04.348Z,2.40
2017-10-23T00:55:31.799Z,2.90
2017-10-23T00:57:59.288Z,2.40
2017-10-23T01:00:26.772Z,2.70
2017-10-23T01:02:54.273Z,2.33
2017-10-23T01:05:21.721Z,2.13
2017-10-23T01:07:49.214Z,2.63
2017-10-23T01:10:16.669Z,2.53
2017-10-23T01:12:44.113Z,2.17
2017-10-23T01:15:11.714Z,2.03
2017-10-23T01:17:39.162Z,1.90
2017-10-23T01:20:06.633Z,1.73
2017-10-23T01:22:34.127Z,1.63
2017-10-23T01:25:01.577Z,2.40
2017-10-23T01:27:29.038Z,2.10
2017-10-23T01:29:56.518Z,1.90
2017-10-23T01:32:23.978Z,1.57
2017-10-23T01:34:51.437Z,2.07
2017-10-23T01:37:18.965Z,2.07
2017-10-23T01:39:46.445Z,2.07
2017-10-23T01:42:13.909Z,1.93
2017-10-23T01:44:41.409Z,2.23
2017-10-23T01:47:08.875Z,2.23
2017-10-23T01:49:36.339Z,1.80
2017-10-23T01:52:03.830Z,2.47
2017-10-23T01:54:31.301Z,2.47
2017-10-23T01:56:58.750Z,1.60
2017-10-23T01:59:26.235Z,2.43
2017-10-23T02:01:53.721Z,1.70
2017-10-23T02:04:21.187Z,1.93
2017-10-23T02:06:48.681Z,2.20
2017-10-23T02:09:16.161Z,1.90
2017-10-23T02:11:43.623Z,2.03
2017-10-23T02:14:11.090Z,2.30
2017-10-23T02:16:38.553Z,2.67
2017-10-23T02:19:06.014Z,2.27
2017-10-23T02:21:33.505Z,2.70
2017-10-23T02:24:00.960Z,2.40
2017-10-23T02:26:28.412Z,1.80
2017-10-23T02:28:55.874Z,1.70
2017-10-23T02:31:23.332Z,2.30
2017-10-23T02:33:50.795Z,1.80
2017-10-23T02:36:18.278Z,1.70
2017-10-23T02:38:45.739Z,1.53
2017-10-23T02:41:13.188Z,2.07
2017-10-23T02:43:40.684Z,1.70
2017-10-23T02:46:08.164Z,1.97
2017-10-23T02:48:35.633Z,1.60
2017-10-23T02:51:03.126Z,2.37
2017-10-23T02:53:30.595Z,2.20
2017-10-23T02:55:58.052Z,1.67
2017-10-23T02:58:25.591Z,1.30
2017-10-23T03:00:53.047Z,1.50
2017-10-23T03:03:20.519Z,2.23
2017-10-23T03:05:47.994Z,1.40
2017-10-23T03:08:15.497Z,1.67
2017-10-23T03:10:42.967Z,2.10
2017-10-23T03:13:10.438Z,1.80
2017-10-23T03:15:37.914Z,1.90
2017-10-23T03:18:05.381Z,1.93
2017-10-23T03:20:32.885Z,1.67
2017-10-23T03:23:00.359Z,1.20
2017-10-23T03:25:27.820Z,2.00
2017-10-23T03:27:55.310Z,1.63
2017-10-23T03:30:22.783Z,2.03
2017-10-23T03:32:50.265Z,1.37
2017-10-23T03:35:17.763Z,1.77
2017-10-23T03:37:45.472Z,1.60
2017-10-23T03:40:12.963Z,1.50
2017-10-23T03:42:40.480Z,1.70
2017-10-23T03:45:07.928Z,1.30
2017-10-23T03:47:35.404Z,0.90
2017-10-23T03:50:02.903Z,1.30
2017-10-23T03:52:30.415Z,1.00
2017-10-23T03:54:57.884Z,1.40
2017-10-23T03:57:25.369Z,1.27
2017-10-23T03:59:52.863Z,1.20
2017-10-23T04:02:20.327Z,1.50
2017-10-23T04:04:47.864Z,1.43
2017-10-23T04:07:15.327Z,1.50
2017-10-23T04:09:42.803Z,1.00
2017-10-23T04:12:10.291Z,1.43
2017-10-23T04:14:37.790Z,1.83
2017-10-23T04:17:05.260Z,1.43
2017-10-23T04:19:32.741Z,1.10
2017-10-23T04:22:00.198Z,1.40
2017-10-23T04:24:27.714Z,1.10
2017-10-23T04:26:55.188Z,1.33
2017-10-23T04:29:22.672Z,1.30
2017-10-23T04:31:50.142Z,1.30
2017-10-23T04:34:17.636Z,1.40
2017-10-23T04:36:45.098Z,1.10
2017-10-23T04:39:12.545Z,1.30
2017-10-23T04:41:40.022Z,1.30
2017-10-23T04:44:07.508Z,1.17
2017-10-23T04:46:34.967Z,1.30
2017-10-23T04:49:02.449Z,1.50
2017-10-23T04:51:29.918Z,1.00
2017-10-23T04:53:57.377Z,1.10
2017-10-23T04:56:24.896Z,1.20
2017-10-23T04:58:52.357Z,1.57
2017-10-23T05:01:19.827Z,1.00
2017-10-23T05:03:47.331Z,1.33
2017-10-23T05:06:14.803Z,1.17
2017-10-23T05:08:42.273Z,1.00
2017-10-23T05:11:09.820Z,0.80
2017-10-23T05:13:37.298Z,1.43
2017-10-23T05:16:04.786Z,1.23
2017-10-23T05:18:32.303Z,1.03
2017-10-23T05:20:59.768Z,1.10
2017-10-23T05:23:27.238Z,1.47
2017-10-23T05:25:54.756Z,1.33
2017-10-23T05:28:22.230Z,1.23
2017-10-23T05:30:49.717Z,1.53
2017-10-23T05:33:17.214Z,1.60
2017-10-23T05:35:44.726Z,1.23
2017-10-23T05:38:12.213Z,1.30
2017-10-23T05:40:39.710Z,1.10
2017-10-23T05:43:08.039Z,1.23
2017-10-23T05:45:35.517Z,1.10
2017-10-23T05:48:03.013Z,1.40
2017-10-23T05:50:31.007Z,1.00
2017-10-23T05:52:58.479Z,1.10
2017-10-23T05:55:25.999Z,1.60
2017-10-23T05:57:53.473Z,1.30
2017-10-23T06:00:20.931Z,1.70
2017-10-23T06:02:48.441Z,1.37
2017-10-23T06:05:15.894Z,1.53
2017-10-23T06:07:43.378Z,1.43
2017-10-23T06:10:11.170Z,1.57
2017-10-23T06:12:38.674Z,1.60
2017-10-23T06:15:06.183Z,1.53
2017-10-23T06:17:33.664Z,1.40
2017-10-23T06:20:01.139Z,1.50
2017-10-23T06:22:28.694Z,2.00
2017-10-23T06:24:56.194Z,1.50
2017-10-23T06:27:23.673Z,2.23
2017-10-23T06:29:51.138Z,1.47
2017-10-23T06:32:18.632Z,1.23
2017-10-23T06:34:46.101Z,1.27
2017-10-23T06:37:13.608Z,1.20
2017-10-23T06:39:41.086Z,1.10
2017-10-23T06:42:08.601Z,1.00
2017-10-23T06:44:36.067Z,1.33
2017-10-23T06:47:03.574Z,1.43
2017-10-23T06:49:31.050Z,1.20
2017-10-23T06:51:58.525Z,1.17
2017-10-23T06:54:26.011Z,1.70
2017-10-23T06:56:53.527Z,1.50
2017-10-23T06:59:20.990Z,1.50
2017-10-23T07:01:48.477Z,1.97
2017-10-23T07:04:15.993Z,1.50
2017-10-23T07:06:43.494Z,1.13
2017-10-23T07:09:11.085Z,1.60
2017-10-23T07:11:38.596Z,1.00
2017-10-23T07:14:06.137Z,1.30
2017-10-23T07:16:33.694Z,1.30
2017-10-23T07:19:01.180Z,1.50
2017-10-23T07:21:28.681Z,1.40
2017-10-23T07:23:56.187Z,1.10
2017-10-23T07:26:23.694Z,1.17
2017-10-23T07:28:51.176Z,1.37
2017-10-23T07:31:18.753Z,0.80
2017-10-23T07:33:46.240Z,1.30
2017-10-23T07:36:13.720Z,1.33
2017-10-23T07:38:41.207Z,1.40
2017-10-23T07:41:08.762Z,1.50
2017-10-23T07:43:36.330Z,1.50
2017-10-23T07:46:03.802Z,1.17
2017-10-23T07:48:31.284Z,1.20
2017-10-23T07:50:58.750Z,1.10
2017-10-23T07:53:31.266Z,1.47
2017-10-23T07:55:58.754Z,1.20
2017-10-23T07:58:26.237Z,1.60
2017-10-23T08:00:53.736Z,1.53
2017-10-23T08:03:21.214Z,1.27
2017-10-23T08:05:48.694Z,1.47
2017-10-23T08:08:16.210Z,1.00
2017-10-23T08:10:43.690Z,1.43
2017-10-23T08:13:11.166Z,1.07
2017-10-23T08:15:38.686Z,0.77
2017-10-23T08:18:06.180Z,1.17
2017-10-23T08:20:33.682Z,0.93
2017-10-23T08:23:01.170Z,1.17
2017-10-23T08:25:28.698Z,1.10
2017-10-23T08:27:56.176Z,1.37
2017-10-23T08:30:23.670Z,1.23
2017-10-23T08:32:51.129Z,1.50
2017-10-23T08:35:18.607Z,1.10
2017-10-23T08:37:46.113Z,1.23
2017-10-23T08:40:13.594Z,1.07
2017-10-23T08:42:41.096Z,1.33
2017-10-23T08:45:08.579Z,0.97
2017-10-23T08:47:36.073Z,1.07
2017-10-23T08:50:03.545Z,1.30
2017-10-23T08:52:31.093Z,0.97
2017-10-23T08:54:58.562Z,1.30
2017-10-23T08:57:26.014Z,1.33
2017-10-23T08:59:53.538Z,1.00
2017-10-23T09:02:21.021Z,1.53
2017-10-23T09:04:48.542Z,1.63
2017-10-23T09:07:16.089Z,1.40
2017-10-23T09:09:43.581Z,1.17
2017-10-23T09:12:11.049Z,1.50
2017-10-23T09:14:38.530Z,1.90
2017-10-23T09:17:06.127Z,1.60
2017-10-23T09:19:33.635Z,1.33
2017-10-23T09:22:01.173Z,1.30
2017-10-23T09:24:28.707Z,1.40
2017-10-23T09:26:56.204Z,1.20
2017-10-23T09:29:23.723Z,1.47
2017-10-23T09:31:51.193Z,1.60
2017-10-23T09:34:18.652Z,1.47
2017-10-23T09:36:46.201Z,1.70
2017-10-23T09:39:13.653Z,2.10
2017-10-23T09:41:41.169Z,1.67
2017-10-23T09:44:08.644Z,1.90
2017-10-23T09:46:36.120Z,1.70
2017-10-23T09:49:03.596Z,2.07
2017-10-23T09:51:31.093Z,2.47
2017-10-23T09:53:58.566Z,2.07
2017-10-23T09:56:26.043Z,1.90
2017-10-23T09:58:53.606Z,2.30
2017-10-23T10:01:21.102Z,1.60
2017-10-23T10:03:48.565Z,2.30
2017-10-23T10:06:16.050Z,1.83
2017-10-23T10:08:43.534Z,1.80
2017-10-23T10:11:11.050Z,2.27
2017-10-23T10:13:38.520Z,2.60
2017-10-23T10:16:05.978Z,2.60
2017-10-23T10:18:33.459Z,1.93
2017-10-23T10:21:00.976Z,2.37
2017-10-23T10:23:28.536Z,2.30
2017-10-23T10:25:56.027Z,2.23
2017-10-23T10:28:24.361Z,2.47
2017-10-23T10:30:51.911Z,3.07
2017-10-23T10:33:19.400Z,2.20
2017-10-23T10:35:46.895Z,2.90
2017-10-23T10:38:14.425Z,3.20
2017-10-23T10:40:41.896Z,2.47
2017-10-23T10:43:09.365Z,2.90
2017-10-23T10:45:36.882Z,2.73
2017-10-23T10:48:04.399Z,3.00
2017-10-23T10:50:31.914Z,3.10
2017-10-23T10:52:59.465Z,3.20
2017-10-23T10:55:26.947Z,3.60
2017-10-23T10:57:54.420Z,4.50
2017-10-23T11:00:21.861Z,4.43
2017-10-23T11:02:49.349Z,4.20
2017-10-23T11:05:16.844Z,3.90
2017-10-23T11:07:44.365Z,3.73
2017-10-23T11:10:11.867Z,4.60
2017-10-23T11:12:39.346Z,3.90
2017-10-23T11:15:06.804Z,4.50
2017-10-23T11:17:34.328Z,5.40
2017-10-23T11:20:01.815Z,4.37
2017-10-23T11:22:29.321Z,3.97
2017-10-23T11:24:56.790Z,4.40
2017-10-23T11:27:24.307Z,4.27
2017-10-23T11:29:51.783Z,4.93
2017-10-23T11:32:19.274Z,4.73
2017-10-23T11:34:46.827Z,4.30
2017-10-23T11:37:14.293Z,4.47
2017-10-23T11:39:41.756Z,4.73
2017-10-23T11:42:09.249Z,4.33
2017-10-23T11:44:36.724Z,6.03
2017-10-23T11:47:04.274Z,6.67
2017-10-23T11:49:31.838Z,5.73
2017-10-23T11:51:59.302Z,6.10
2017-10-23T11:54:26.799Z,6.13
2017-10-23T11:56:54.326Z,6.27
2017-10-23T11:59:21.807Z,5.80
2017-10-23T12:01:49.274Z,5.70
2017-10-23T12:04:17.127Z,5.93
2017-10-23T12:06:44.600Z,6.27
2017-10-23T12:09:12.077Z,5.27
2017-10-23T12:11:39.567Z,5.27
2017-10-23T12:14:07.146Z,5.73
2017-10-23T12:16:34.625Z,5.90
2017-10-23T12:19:02.162Z,6.10
2017-10-23T12:21:29.612Z,5.70
2017-10-23T12:23:57.065Z,5.80
2017-10-23T12:26:24.573Z,4.73
2017-10-23T12:28:52.041Z,5.67
2017-10-23T12:31:19.519Z,5.63
2017-10-23T12:33:47.025Z,5.10
2017-10-23T12:36:14.523Z,5.37
2017-10-23T12:38:42.020Z,3.90
2017-10-23T12:41:09.562Z,4.27
2017-10-23T12:43:37.049Z,5.27
2017-10-23T12:46:04.537Z,4.50
2017-10-23T12:48:32.021Z,5.03
2017-10-23T12:50:59.469Z,5.00
2017-10-23T12:53:26.946Z,4.43
2017-10-23T12:55:54.436Z,4.33
2017-10-23T12:58:21.907Z,4.50
2017-10-23T13:00:49.392Z,5.30
2017-10-23T13:03:16.886Z,4.07
2017-10-23T13:05:44.756Z,3.83
2017-10-23T13:08:12.631Z,3.87
2017-10-23T13:10:40.138Z,4.97
2017-10-23T13:13:07.589Z,4.20
2017-10-23T13:15:35.045Z,4.13
2017-10-23T13:18:02.538Z,4.47
2017-10-23T13:20:30.008Z,4.73
2017-10-23T13:22:57.465Z,4.53
2017-10-23T13:25:24.945Z,4.20
2017-10-23T13:27:52.404Z,4.40
2017-10-23T13:30:19.853Z,4.37
2017-10-23T13:32:47.334Z,4.60
2017-10-23T13:35:14.808Z,4.83
2017-10-23T13:37:42.277Z,4.20
2017-10-23T13:40:09.858Z,4.30
2017-10-23T13:42:37.322Z,4.57
2017-10-23T13:45:04.815Z,4.67
2017-10-23T13:47:32.307Z,4.17
2017-10-23T13:49:59.775Z,3.83
2017-10-23T13:52:27.250Z,4.27
2017-10-23T13:54:54.760Z,4.77
2017-10-23T13:57:22.225Z,4.93
2017-10-23T13:59:49.714Z,4.93
2017-10-23T14:02:17.215Z,5.10
2017-10-23T14:04:44.709Z,4.50
2017-10-23T14:07:12.180Z,4.90
2017-10-23T14:09:39.691Z,3.70
2017-10-23T14:12:07.155Z,5.03
2017-10-23T14:14:34.621Z,4.50
2017-10-23T14:17:02.119Z,4.70
2017-10-23T14:19:29.584Z,4.17
2017-10-23T14:21:57.060Z,4.77
2017-10-23T14:24:24.550Z,3.73
2017-10-23T14:26:52.028Z,3.83
2017-10-23T14:29:19.551Z,4.20
2017-10-23T14:31:47.101Z,4.00
2017-10-23T14:34:14.612Z,4.30
2017-10-23T14:36:42.102Z,4.90
2017-10-23T14:39:09.611Z,4.20
2017-10-23T14:41:37.110Z,4.33
2017-10-23T14:44:04.694Z,4.67
2017-10-23T14:46:32.241Z,4.20
2017-10-23T14:48:59.768Z,4.60
2017-10-23T14:51:27.274Z,4.50
2017-10-23T14:53:54.820Z,5.67
2017-10-23T14:56:22.276Z,4.10
2017-10-23T14:58:49.783Z,4.10
2017-10-23T15:01:17.315Z,3.97
2017-10-23T15:03:44.794Z,3.90
2017-10-23T15:06:12.265Z,4.13
2017-10-23T15:08:39.778Z,5.40
2017-10-23T15:11:07.273Z,4.33
2017-10-23T15:13:34.751Z,3.70
2017-10-23T15:16:02.248Z,4.20
2017-10-23T15:18:29.862Z,3.53
2017-10-23T15:20:57.551Z,3.33
2017-10-23T15:23:25.044Z,4.53
2017-10-23T15:25:52.756Z,3.83
2017-10-23T15:28:20.512Z,4.20
2017-10-23T15:30:48.161Z,3.47
2017-10-23T15:33:15.641Z,4.10
2017-10-23T15:35:43.126Z,3.57
2017-10-23T15:38:10.667Z,4.17
2017-10-23T15:40:38.137Z,4.23
2017-10-23T15:43:05.647Z,4.30
2017-10-23T15:45:33.124Z,3.40
2017-10-23T15:48:00.599Z,4.10
2017-10-23T15:50:28.070Z,4.37
2017-10-23T15:52:55.554Z,3.63
2017-10-23T15:55:23.041Z,3.50
2017-10-23T15:57:50.551Z,3.40
2017-10-23T16:00:18.083Z,3.93
2017-10-23T16:02:45.549Z,2.93
2017-10-23T16:05:13.042Z,3.60
2017-10-23T16:07:40.547Z,3.70
2017-10-23T16:10:08.039Z,3.43
2017-10-23T16:12:35.531Z,3.00
2017-10-23T16:15:03.022Z,3.73
2017-10-23T16:17:30.518Z,3.33
2017-10-23T16:19:57.978Z,3.20
2017-10-23T16:22:25.481Z,3.20
2017-10-23T16:24:52.966Z,3.30
2017-10-23T16:27:20.438Z,3.40
2017-10-23T16:29:47.996Z,3.87
2017-10-23T16:32:15.491Z,4.00
2017-10-23T16:34:42.976Z,3.63
2017-10-23T16:37:10.495Z,3.33
2017-10-23T16:39:37.985Z,3.47
2017-10-23T16:42:05.488Z,3.17
2017-10-23T16:44:33.000Z,3.30
2017-10-23T16:47:00.502Z,3.20
2017-10-23T16:49:27.985Z,2.90
2017-10-23T16:51:55.497Z,3.70
2017-10-23T16:54:22.957Z,3.40
2017-10-23T16:56:50.435Z,2.70
2017-10-23T16:59:17.923Z,3.87
2017-10-23T17:01:45.394Z,3.43
2017-10-23T17:04:12.875Z,3.03
2017-10-23T17:06:40.378Z,3.50
2017-10-23T17:09:07.836Z,3.07
2017-10-23T17:11:35.290Z,3.10
2017-10-23T17:14:02.771Z,3.30
2017-10-23T17:16:30.309Z,3.40
2017-10-23T17:18:57.854Z,3.17
2017-10-23T17:21:25.383Z,2.80
2017-10-23T17:23:52.951Z,3.10
2017-10-23T17:26:20.478Z,2.80
2017-10-23T17:28:47.989Z,2.70
2017-10-23T17:31:15.543Z,2.93
2017-10-23T17:33:43.068Z,2.87
2017-10-23T17:36:10.554Z,2.60
2017-10-23T17:38:38.020Z,2.67
2017-10-23T17:41:05.515Z,2.70
2017-10-23T17:43:33.018Z,2.67
2017-10-23T17:46:00.467Z,2.20
2017-10-23T17:48:27.976Z,3.30
2017-10-23T17:50:55.520Z,3.10
2017-10-23T17:53:23.591Z,2.50
2017-10-23T17:55:51.113Z,2.53
2017-10-23T17:58:18.605Z,3.00
2017-10-23T18:00:46.083Z,2.43
2017-10-23T18:03:13.615Z,2.67
2017-10-23T18:05:41.375Z,2.20
2017-10-23T18:08:08.877Z,2.50
2017-10-23T18:10:36.342Z,2.30
2017-10-23T18:13:03.909Z,2.83
2017-10-23T18:15:31.643Z,3.03
2017-10-23T18:17:59.137Z,2.70
2017-10-23T18:20:26.649Z,2.57
2017-10-23T18:22:54.165Z,3.70
2017-10-23T18:25:21.624Z,3.00
2017-10-23T18:27:49.138Z,3.93
2017-10-23T18:30:16.595Z,2.93
2017-10-23T18:32:44.123Z,3.20
2017-10-23T18:35:11.629Z,2.93
2017-10-23T18:37:39.115Z,2.90
2017-10-23T18:40:06.666Z,2.77
2017-10-23T18:42:34.163Z,2.67
2017-10-23T18:45:01.651Z,2.60
2017-10-23T18:47:29.158Z,3.07
2017-10-23T18:49:56.673Z,3.03
2017-10-23T18:52:24.162Z,3.23
2017-10-23T18:54:51.666Z,2.87
2017-10-23T18:57:19.153Z,3.10
2017-10-23T18:59:46.637Z,3.20
2017-10-23T19:02:14.145Z,3.10
2017-10-23T19:04:41.682Z,3.17
2017-10-23T19:07:09.178Z,3.03
2017-10-23T19:09:36.671Z,3.47
2017-10-23T19:12:10.584Z,2.83
2017-10-23T19:14:38.139Z,2.67
2017-10-23T19:17:05.630Z,3.00
2017-10-23T19:19:33.518Z,3.00
2017-10-23T19:22:01.031Z,2.60
2017-10-23T19:24:28.543Z,2.70
2017-10-23T19:26:56.096Z,2.47
2017-10-23T19:29:23.597Z,2.70
2017-10-23T19:31:51.069Z,2.60
2017-10-23T19:34:18.570Z,2.70
2017-10-23T19:36:46.071Z,2.47
2017-10-23T19:39:13.596Z,2.30
2017-10-23T19:41:41.147Z,2.60
2017-10-23T19:44:08.628Z,2.80
2017-10-23T19:46:36.093Z,3.10
2017-10-23T19:49:03.633Z,2.50
2017-10-23T19:51:31.100Z,2.27
2017-10-23T19:53:58.599Z,2.93
2017-10-23T19:56:26.118Z,3.03
2017-10-23T19:58:53.687Z,2.93
2017-10-23T20:01:21.179Z,2.70
2017-10-23T20:03:48.703Z,2.90
2017-10-23T20:06:16.177Z,2.87
2017-10-23T20:08:43.724Z,3.17
2017-10-23T20:11:11.279Z,3.10
2017-10-23T20:13:38.769Z,2.90
2017-10-23T20:16:06.873Z,2.77
2017-10-23T20:18:34.377Z,2.60
2017-10-23T20:21:01.859Z,3.13
2017-10-23T20:23:29.347Z,3.20
2017-10-23T20:25:56.855Z,2.70
2017-10-23T20:28:24.369Z,2.47
2017-10-23T20:30:51.866Z,2.77
2017-10-23T20:33:19.401Z,2.50
2017-10-23T20:35:46.940Z,2.33
2017-10-23T20:38:14.514Z,2.50
2017-10-23T20:40:42.052Z,2.70
2017-10-23T20:43:09.577Z,3.20
2017-10-23T20:45:37.041Z,2.70
2017-10-23T20:48:04.541Z,2.47
2017-10-23T20:50:32.056Z,2.50
2017-10-23T20:52:59.569Z,2.50
2017-10-23T20:55:27.039Z,2.60
2017-10-23T20:57:54.494Z,2.50
2017-10-23T21:00:21.954Z,2.40
2017-10-23T21:02:49.498Z,2.70
2017-10-23T21:05:17.004Z,2.50
2017-10-23T21:07:44.461Z,2.20
2017-10-23T21:10:11.945Z,2.50
2017-10-23T21:12:39.429Z,2.63
2017-10-23T21:15:06.963Z,2.77
2017-10-23T21:17:34.491Z,2.00
2017-10-23T21:20:01.966Z,2.30
2017-10-23T21:22:29.417Z,2.80
2017-10-23T21:24:56.903Z,2.87
2017-10-23T21:27:24.364Z,2.73
2017-10-23T21:29:51.822Z,3.43
2017-10-23T21:32:19.314Z,3.13
2017-10-23T21:34:46.777Z,3.43
2017-10-23T21:37:14.295Z,2.77
2017-10-23T21:39:41.796Z,3.50
2017-10-23T21:42:10.458Z,3.80
2017-10-23T21:44:37.925Z,3.27
2017-10-23T21:47:10.425Z,4.20
2017-10-23T21:49:37.937Z,3.50
2017-10-23T21:52:05.470Z,4.50
2017-10-23T21:54:32.975Z,4.50
2017-10-23T21:57:00.431Z,4.30
2017-10-23T21:59:27.908Z,5.20
2017-10-23T22:01:55.444Z,5.20
2017-10-23T22:04:22.920Z,5.40
2017-10-23T22:06:50.475Z,5.67
2017-10-23T22:09:17.959Z,4.80
2017-10-23T22:11:45.441Z,5.60
2017-10-23T22:14:12.899Z,5.83
2017-10-23T22:16:40.362Z,6.20
2017-10-23T22:19:07.818Z,5.73
2017-10-23T22:21:35.275Z,5.40
2017-10-23T22:24:02.800Z,5.97
2017-10-23T22:26:30.262Z,6.20
2017-10-23T22:28:57.757Z,6.10
2017-10-23T22:31:25.245Z,5.83
2017-10-23T22:33:52.702Z,6.07
2017-10-23T22:36:20.172Z,7.07
2017-10-23T22:38:47.642Z,6.13
2017-10-23T22:41:15.111Z,7.03
2017-10-23T22:43:42.578Z,7.13
2017-10-23T22:46:10.078Z,7.13
2017-10-23T22:48:37.534Z,6.60
2017-10-23T22:51:05.032Z,6.77
2017-10-23T22:53:32.550Z,7.80
2017-10-23T22:56:00.019Z,7.13
2017-10-23T22:58:27.504Z,6.70
2017-10-23T23:00:54.981Z,6.67
2017-10-23T23:03:22.468Z,6.20
2017-10-23T23:05:49.965Z,7.30
2017-10-23T23:08:17.509Z,6.73
2017-10-23T23:10:44.982Z,6.70
2017-10-23T23:13:12.455Z,6.30
2017-10-23T23:15:39.969Z,7.10
2017-10-23T23:18:07.455Z,6.90
2017-10-23T23:20:34.974Z,7.07
2017-10-23T23:23:02.488Z,7.10
2017-10-23T23:25:29.991Z,6.93
2017-10-23T23:27:57.437Z,7.07
2017-10-23T23:30:24.909Z,7.00
2017-10-23T23:32:52.537Z,6.20
2017-10-23T23:35:19.998Z,6.30
2017-10-23T23:37:47.481Z,6.43
2017-10-23T23:40:14.982Z,6.90
2017-10-23T23:42:42.463Z,7.63
2017-10-23T23:45:09.967Z,6.37
2017-10-23T23:47:37.424Z,6.63
2017-10-23T23:50:04.871Z,6.47
2017-10-23T23:52:32.348Z,6.83
2017-10-23T23:54:59.822Z,6.77
2017-10-23T23:57:27.276Z,6.10
2017-10-23T23:59:54.775Z,6.87
